createdAt,value
2017-08-29T00:01:04.086Z,18.10
2017-08-29T00:03:29.841Z,18.16
2017-08-29T00:05:55.690Z,18.22
2017-08-29T00:08:21.456Z,18.20
2017-08-29T00:10:47.202Z,18.21
2017-08-29T00:13:12.971Z,18.22
2017-08-29T00:15:38.838Z,17.99
2017-08-29T00:18:04.594Z,17.83
2017-08-29T00:20:30.360Z,18.03
2017-08-29T00:22:56.710Z,18.05
2017-08-29T00:25:22.471Z,18.00
2017-08-29T00:27:48.247Z,18.05
2017-08-29T00:30:14.027Z,17.93
2017-08-29T00:32:39.780Z,17.95
2017-08-29T00:35:05.559Z,18.05
2017-08-29T00:37:31.349Z,18.06
2017-08-29T00:39:57.149Z,17.94
2017-08-29T00:42:22.892Z,17.91
2017-08-29T00:44:48.651Z,17.96
2017-08-29T00:47:14.457Z,17.87
2017-08-29T00:49:40.284Z,17.86
2017-08-29T00:52:06.079Z,17.46
2017-08-29T00:54:31.855Z,17.77
2017-08-29T00:56:57.606Z,17.81
2017-08-29T00:59:23.414Z,17.43
2017-08-29T01:01:49.172Z,17.23
2017-08-29T01:04:14.944Z,17.21
2017-08-29T01:06:40.731Z,17.45
2017-08-29T01:09:06.496Z,17.52
2017-08-29T01:11:32.275Z,17.47
2017-08-29T01:13:58.059Z,17.44
2017-08-29T01:16:23.815Z,17.60
2017-08-29T01:18:49.675Z,17.55
2017-08-29T01:21:15.464Z,17.48
2017-08-29T01:23:41.297Z,17.52
2017-08-29T01:26:07.064Z,17.47
2017-08-29T01:28:32.834Z,17.56
2017-08-29T01:30:58.640Z,17.40
2017-08-29T01:33:24.435Z,17.29
2017-08-29T01:35:50.193Z,17.34
2017-08-29T01:38:16.090Z,17.29
2017-08-29T01:40:41.922Z,17.52
2017-08-29T01:43:07.701Z,17.52
2017-08-29T01:45:33.463Z,17.20
2017-08-29T01:47:59.332Z,16.92
2017-08-29T01:50:25.107Z,16.85
2017-08-29T01:52:50.859Z,16.86
2017-08-29T01:55:16.681Z,16.84
2017-08-29T01:57:42.431Z,17.07
2017-08-29T02:00:08.200Z,17.12
2017-08-29T02:02:34.057Z,17.14
2017-08-29T02:04:59.851Z,17.03
2017-08-29T02:07:25.651Z,16.90
2017-08-29T02:09:51.413Z,16.89
2017-08-29T02:12:17.207Z,16.77
2017-08-29T02:14:42.968Z,16.85
2017-08-29T02:17:08.752Z,17.00
2017-08-29T02:19:34.509Z,16.96
2017-08-29T02:22:00.274Z,16.99
2017-08-29T02:24:26.024Z,16.91
2017-08-29T02:26:51.821Z,16.98
2017-08-29T02:29:18.435Z,17.06
2017-08-29T02:31:44.186Z,16.90
2017-08-29T02:34:09.971Z,16.79
2017-08-29T02:36:35.781Z,16.66
2017-08-29T02:39:01.546Z,16.73
2017-08-29T02:41:27.327Z,16.59
2017-08-29T02:43:53.083Z,16.56
2017-08-29T02:46:18.839Z,16.61
2017-08-29T02:48:44.641Z,16.64
2017-08-29T02:51:10.384Z,16.51
2017-08-29T02:53:36.154Z,16.58
2017-08-29T02:56:01.913Z,16.63
2017-08-29T02:58:27.711Z,16.71
2017-08-29T03:00:53.464Z,16.49
2017-08-29T03:03:19.239Z,16.68
2017-08-29T03:05:44.999Z,16.48
2017-08-29T03:08:10.772Z,16.41
2017-08-29T03:10:36.627Z,16.36
2017-08-29T03:13:02.401Z,16.21
2017-08-29T03:15:28.207Z,16.33
2017-08-29T03:17:53.944Z,16.42
2017-08-29T03:20:19.683Z,16.38
2017-08-29T03:22:45.611Z,16.49
2017-08-29T03:25:11.394Z,16.54
2017-08-29T03:27:37.143Z,16.45
2017-08-29T03:30:03.650Z,16.43
2017-08-29T03:32:29.436Z,16.50
2017-08-29T03:34:55.203Z,16.43
2017-08-29T03:37:20.944Z,16.54
2017-08-29T03:39:46.761Z,16.48
2017-08-29T03:42:12.506Z,16.46
2017-08-29T03:44:38.265Z,16.42
2017-08-29T03:47:04.064Z,16.31
2017-08-29T03:49:29.824Z,16.43
2017-08-29T03:51:55.580Z,16.32
2017-08-29T03:54:21.391Z,16.32
2017-08-29T03:56:47.150Z,16.34
2017-08-29T03:59:12.927Z,16.25
2017-08-29T04:01:38.698Z,16.26
2017-08-29T04:04:04.435Z,16.33
2017-08-29T04:06:30.209Z,16.38
2017-08-29T04:08:55.959Z,16.25
2017-08-29T04:11:21.783Z,16.17
2017-08-29T04:13:47.557Z,16.15
2017-08-29T04:16:13.332Z,16.16
2017-08-29T04:18:39.080Z,16.35
2017-08-29T04:21:04.871Z,16.26
2017-08-29T04:23:30.680Z,16.29
2017-08-29T04:25:56.428Z,16.17
2017-08-29T04:28:22.199Z,16.22
2017-08-29T04:30:48.023Z,16.10
2017-08-29T04:33:14.113Z,16.15
2017-08-29T04:35:39.860Z,16.28
2017-08-29T04:38:05.691Z,16.16
2017-08-29T04:40:31.512Z,16.03
2017-08-29T04:42:57.267Z,15.90
2017-08-29T04:45:23.075Z,15.88
2017-08-29T04:47:48.847Z,15.87
2017-08-29T04:50:14.589Z,16.03
2017-08-29T04:52:40.536Z,16.12
2017-08-29T04:55:06.313Z,16.22
2017-08-29T04:57:32.108Z,16.26
2017-08-29T04:59:57.870Z,16.22
2017-08-29T05:02:23.631Z,16.26
2017-08-29T05:04:49.414Z,16.35
2017-08-29T05:07:15.214Z,16.49
2017-08-29T05:09:40.972Z,16.37
2017-08-29T05:12:06.755Z,16.33
2017-08-29T05:14:32.491Z,16.43
2017-08-29T05:16:58.288Z,16.55
2017-08-29T05:19:24.054Z,16.60
2017-08-29T05:21:49.828Z,16.47
2017-08-29T05:24:15.666Z,16.70
2017-08-29T05:26:41.418Z,16.83
2017-08-29T05:29:07.237Z,16.65
2017-08-29T05:31:33.003Z,16.47
2017-08-29T05:33:58.787Z,16.45
2017-08-29T05:36:24.539Z,16.68
2017-08-29T05:38:50.336Z,16.57
2017-08-29T05:41:16.100Z,16.87
2017-08-29T05:43:41.868Z,17.02
2017-08-29T05:46:08.335Z,16.85
2017-08-29T05:48:34.115Z,17.16
2017-08-29T05:50:59.879Z,17.52
2017-08-29T05:53:25.671Z,17.69
2017-08-29T05:55:51.436Z,17.57
2017-08-29T05:58:17.227Z,17.68
2017-08-29T06:00:43.023Z,18.00
2017-08-29T06:03:08.771Z,18.38
2017-08-29T06:05:34.527Z,18.17
2017-08-29T06:08:00.346Z,18.57
2017-08-29T06:10:26.208Z,18.67
2017-08-29T06:12:51.975Z,18.81
2017-08-29T06:15:17.860Z,19.15
2017-08-29T06:17:43.627Z,19.37
2017-08-29T06:20:09.468Z,19.89
2017-08-29T06:22:35.231Z,19.89
2017-08-29T06:25:01.007Z,19.83
2017-08-29T06:27:26.761Z,19.96
2017-08-29T06:29:52.566Z,20.25
2017-08-29T06:32:18.336Z,20.25
2017-08-29T06:34:44.185Z,20.12
2017-08-29T06:37:09.960Z,20.30
2017-08-29T06:39:35.714Z,20.57
2017-08-29T06:42:01.579Z,20.53
2017-08-29T06:44:27.369Z,20.79
2017-08-29T06:46:53.140Z,20.80
2017-08-29T06:49:18.895Z,21.01
2017-08-29T06:51:44.676Z,21.22
2017-08-29T06:54:10.491Z,21.38
2017-08-29T06:56:36.248Z,21.62
2017-08-29T06:59:02.008Z,22.11
2017-08-29T07:01:27.783Z,22.49
2017-08-29T07:03:53.536Z,22.70
2017-08-29T07:06:19.310Z,23.10
2017-08-29T07:08:45.115Z,23.24
2017-08-29T07:11:10.900Z,24.35
2017-08-29T07:13:36.720Z,24.74
2017-08-29T07:16:02.512Z,25.39
2017-08-29T07:18:28.296Z,25.86
2017-08-29T07:20:54.095Z,25.50
2017-08-29T07:23:19.844Z,25.84
2017-08-29T07:25:45.707Z,26.36
2017-08-29T07:28:11.473Z,26.33
2017-08-29T07:30:37.252Z,27.14
2017-08-29T07:33:03.004Z,26.82
2017-08-29T07:35:28.749Z,27.15
2017-08-29T07:37:54.589Z,27.37
2017-08-29T07:40:20.346Z,27.75
2017-08-29T07:42:46.088Z,27.12
2017-08-29T07:45:11.888Z,27.83
2017-08-29T07:47:37.649Z,27.68
2017-08-29T07:50:03.436Z,27.99
2017-08-29T07:52:29.196Z,27.66
2017-08-29T07:54:55.391Z,27.76
2017-08-29T07:57:21.175Z,27.80
2017-08-29T07:59:46.980Z,27.64
2017-08-29T08:02:12.713Z,27.06
2017-08-29T08:04:38.475Z,26.73
2017-08-29T08:07:04.251Z,26.87
2017-08-29T08:09:29.987Z,26.89
2017-08-29T08:11:55.795Z,26.94
2017-08-29T08:14:21.556Z,27.26
2017-08-29T08:16:47.326Z,27.32
2017-08-29T08:19:13.120Z,26.78
2017-08-29T08:21:38.883Z,26.36
2017-08-29T08:24:04.668Z,26.57
2017-08-29T08:26:30.444Z,26.58
2017-08-29T08:28:56.238Z,26.58
2017-08-29T08:31:22.139Z,26.69
2017-08-29T08:33:47.940Z,27.16
2017-08-29T08:36:13.711Z,26.67
2017-08-29T08:38:39.460Z,25.96
2017-08-29T08:41:05.226Z,26.07
2017-08-29T08:43:30.968Z,26.24
2017-08-29T08:45:56.763Z,26.99
2017-08-29T08:48:22.531Z,27.17
2017-08-29T08:50:48.317Z,27.47
2017-08-29T08:53:14.071Z,27.37
2017-08-29T08:55:39.853Z,27.48
2017-08-29T08:58:05.627Z,27.56
2017-08-29T09:00:31.376Z,27.73
2017-08-29T09:02:57.144Z,27.76
2017-08-29T09:05:22.880Z,27.77
2017-08-29T09:07:48.659Z,28.17
2017-08-29T09:10:14.443Z,27.51
2017-08-29T09:12:40.227Z,28.00
2017-08-29T09:15:06.036Z,27.15
2017-08-29T09:17:31.815Z,27.56
2017-08-29T09:19:57.591Z,27.95
2017-08-29T09:22:23.342Z,28.28
2017-08-29T09:24:49.114Z,27.99
2017-08-29T09:27:14.864Z,28.48
2017-08-29T09:29:40.652Z,28.76
2017-08-29T09:32:06.440Z,28.21
2017-08-29T09:34:32.290Z,28.67
2017-08-29T09:36:58.039Z,28.99
2017-08-29T09:39:23.802Z,29.34
2017-08-29T09:41:49.589Z,29.41
2017-08-29T09:44:15.369Z,29.73
2017-08-29T09:46:41.171Z,28.86
2017-08-29T09:49:07.034Z,29.12
2017-08-29T09:51:32.787Z,28.39
2017-08-29T09:53:58.572Z,29.46
2017-08-29T09:56:24.352Z,29.38
2017-08-29T09:58:50.107Z,29.50
2017-08-29T10:01:15.896Z,28.76
2017-08-29T10:03:41.694Z,28.81
2017-08-29T10:06:07.447Z,29.05
2017-08-29T10:08:33.222Z,31.13
2017-08-29T10:10:59.025Z,30.22
2017-08-29T10:13:24.787Z,30.24
2017-08-29T10:15:50.572Z,30.77
2017-08-29T10:18:16.344Z,30.18
2017-08-29T10:20:42.107Z,29.46
2017-08-29T10:23:07.895Z,29.80
2017-08-29T10:25:33.693Z,30.50
2017-08-29T10:27:59.466Z,30.40
2017-08-29T10:30:25.231Z,30.28
2017-08-29T10:32:51.016Z,29.82
2017-08-29T10:35:16.807Z,30.82
2017-08-29T10:37:42.564Z,30.74
2017-08-29T10:40:08.311Z,31.39
2017-08-29T10:42:34.083Z,30.81
2017-08-29T10:44:59.912Z,29.63
2017-08-29T10:47:25.704Z,30.42
2017-08-29T10:49:51.520Z,31.05
2017-08-29T10:52:17.296Z,30.92
2017-08-29T10:54:43.081Z,31.02
2017-08-29T10:57:08.858Z,33.03
2017-08-29T10:59:34.617Z,30.76
2017-08-29T11:02:00.379Z,31.33
2017-08-29T11:04:26.168Z,31.69
2017-08-29T11:06:52.095Z,32.27
2017-08-29T11:09:17.854Z,32.34
2017-08-29T11:11:43.625Z,32.67
2017-08-29T11:14:09.372Z,33.13
2017-08-29T11:16:35.158Z,32.20
2017-08-29T11:19:00.943Z,31.92
2017-08-29T11:21:26.712Z,32.83
2017-08-29T11:23:52.479Z,32.14
2017-08-29T11:26:18.285Z,32.20
2017-08-29T11:28:44.065Z,33.48
2017-08-29T11:31:09.835Z,34.93
2017-08-29T11:33:35.631Z,33.89
2017-08-29T11:36:01.392Z,33.57
2017-08-29T11:38:27.187Z,34.07
2017-08-29T11:40:52.991Z,32.06
2017-08-29T11:43:18.778Z,32.69
2017-08-29T11:45:44.560Z,32.91
2017-08-29T11:48:10.376Z,33.50
2017-08-29T11:50:36.155Z,33.92
2017-08-29T11:53:01.935Z,34.86
2017-08-29T11:55:27.733Z,33.91
2017-08-29T11:57:55.622Z,33.89
2017-08-29T12:00:21.399Z,34.62
2017-08-29T12:02:47.184Z,33.81
2017-08-29T12:05:12.986Z,35.64
2017-08-29T12:07:38.757Z,34.87
2017-08-29T12:10:04.532Z,33.89
2017-08-29T12:12:30.394Z,34.26
2017-08-29T12:14:56.181Z,34.38
2017-08-29T12:17:21.955Z,33.75
2017-08-29T12:19:47.750Z,32.85
2017-08-29T12:22:13.521Z,32.75
2017-08-29T12:24:39.287Z,33.36
2017-08-29T12:27:05.044Z,33.65
2017-08-29T12:29:30.852Z,33.54
2017-08-29T12:31:56.611Z,33.81
2017-08-29T12:34:22.416Z,35.37
2017-08-29T12:36:48.218Z,34.81
2017-08-29T12:39:14.000Z,33.68
2017-08-29T12:41:39.749Z,35.04
2017-08-29T12:44:05.517Z,33.43
2017-08-29T12:46:31.296Z,33.17
2017-08-29T12:48:57.100Z,33.75
2017-08-29T12:51:22.858Z,33.36
2017-08-29T12:53:48.643Z,36.13
2017-08-29T12:56:14.408Z,36.91
2017-08-29T12:58:40.159Z,34.52
2017-08-29T13:01:05.934Z,34.53
2017-08-29T13:03:31.688Z,35.03
2017-08-29T13:05:57.488Z,36.87
2017-08-29T13:08:23.252Z,36.45
2017-08-29T13:10:49.036Z,35.47
2017-08-29T13:13:15.023Z,35.56
2017-08-29T13:15:40.767Z,34.07
2017-08-29T13:18:06.538Z,35.61
2017-08-29T13:20:32.353Z,36.60
2017-08-29T13:22:58.128Z,36.06
2017-08-29T13:25:23.899Z,34.71
2017-08-29T13:27:49.684Z,33.76
2017-08-29T13:30:15.489Z,37.00
2017-08-29T13:32:41.274Z,34.33
2017-08-29T13:35:07.037Z,36.78
2017-08-29T13:37:32.832Z,36.98
2017-08-29T13:39:58.586Z,37.43
2017-08-29T13:42:24.356Z,35.20
2017-08-29T13:44:50.111Z,36.32
2017-08-29T13:47:15.882Z,33.84
2017-08-29T13:49:41.633Z,34.29
2017-08-29T13:52:07.380Z,33.62
2017-08-29T13:54:33.211Z,36.05
2017-08-29T13:56:58.982Z,36.20
2017-08-29T13:59:24.744Z,37.44
2017-08-29T14:01:50.569Z,37.51
2017-08-29T14:04:16.436Z,35.41
2017-08-29T14:06:42.179Z,35.17
2017-08-29T14:09:07.969Z,34.62
2017-08-29T14:11:33.733Z,33.66
2017-08-29T14:13:59.487Z,34.69
2017-08-29T14:16:25.246Z,36.01
2017-08-29T14:18:51.076Z,33.83
2017-08-29T14:21:16.840Z,32.81
2017-08-29T14:23:42.612Z,33.97
2017-08-29T14:26:08.395Z,33.76
2017-08-29T14:28:34.240Z,35.04
2017-08-29T14:31:00.009Z,35.94
2017-08-29T14:33:25.762Z,36.49
2017-08-29T14:35:51.519Z,36.47
2017-08-29T14:38:17.311Z,35.76
2017-08-29T14:40:43.111Z,35.60
2017-08-29T14:43:08.895Z,35.64
2017-08-29T14:45:34.687Z,36.59
2017-08-29T14:48:12.704Z,34.23
2017-08-29T14:50:38.488Z,36.59
2017-08-29T14:53:04.247Z,34.51
2017-08-29T14:55:30.041Z,35.18
2017-08-29T14:57:55.856Z,35.22
2017-08-29T15:00:21.678Z,35.20
2017-08-29T15:02:47.462Z,33.45
2017-08-29T15:05:13.207Z,33.89
2017-08-29T15:07:39.005Z,34.62
2017-08-29T15:10:04.758Z,33.63
2017-08-29T15:12:30.608Z,36.62
2017-08-29T15:14:56.396Z,35.68
2017-08-29T15:17:22.159Z,35.01
2017-08-29T15:19:47.919Z,35.13
2017-08-29T15:22:13.691Z,35.58
2017-08-29T15:24:39.504Z,35.02
2017-08-29T15:27:05.251Z,34.89
2017-08-29T15:29:31.129Z,34.90
2017-08-29T15:31:56.887Z,35.80
2017-08-29T15:34:22.665Z,34.88
2017-08-29T15:36:48.451Z,34.63
2017-08-29T15:39:14.215Z,34.75
2017-08-29T15:41:40.016Z,34.47
2017-08-29T15:44:05.796Z,33.78
2017-08-29T15:46:31.586Z,34.99
2017-08-29T15:48:57.340Z,34.65
2017-08-29T15:51:23.204Z,34.40
2017-08-29T15:53:49.004Z,34.32
2017-08-29T15:56:14.852Z,34.03
2017-08-29T15:58:40.659Z,33.18
2017-08-29T16:01:06.493Z,33.39
2017-08-29T16:03:32.297Z,33.76
2017-08-29T16:05:58.144Z,33.63
2017-08-29T16:08:23.952Z,33.03
2017-08-29T16:10:49.721Z,32.89
2017-08-29T16:13:15.496Z,33.27
2017-08-29T16:15:41.345Z,32.78
2017-08-29T16:18:07.095Z,33.12
2017-08-29T16:20:32.879Z,32.35
2017-08-29T16:22:58.629Z,33.53
2017-08-29T16:25:24.424Z,33.00
2017-08-29T16:27:50.220Z,32.48
2017-08-29T16:30:15.989Z,32.04
2017-08-29T16:32:41.752Z,32.46
2017-08-29T16:35:07.679Z,31.77
2017-08-29T16:37:33.425Z,30.83
2017-08-29T16:39:59.269Z,30.65
2017-08-29T16:42:25.043Z,30.86
2017-08-29T16:44:50.797Z,31.83
2017-08-29T16:47:16.561Z,32.25
2017-08-29T16:49:42.334Z,31.33
2017-08-29T16:52:08.094Z,31.23
2017-08-29T16:54:33.928Z,30.86
2017-08-29T16:56:59.759Z,31.20
2017-08-29T16:59:25.567Z,30.78
2017-08-29T17:01:51.348Z,30.06
2017-08-29T17:04:17.147Z,30.36
2017-08-29T17:06:42.903Z,30.45
2017-08-29T17:09:08.752Z,30.20
2017-08-29T17:11:34.524Z,30.15
2017-08-29T17:14:00.271Z,29.56
2017-08-29T17:16:26.056Z,29.46
2017-08-29T17:18:51.804Z,29.18
2017-08-29T17:21:17.581Z,29.39
2017-08-29T17:23:43.339Z,29.10
2017-08-29T17:26:09.117Z,28.81
2017-08-29T17:28:34.887Z,28.79
2017-08-29T17:31:00.682Z,28.44
2017-08-29T17:33:26.435Z,28.42
2017-08-29T17:35:52.183Z,28.34
2017-08-29T17:38:17.993Z,28.08
2017-08-29T17:40:43.927Z,28.27
2017-08-29T17:43:09.683Z,28.21
2017-08-29T17:45:35.534Z,28.08
2017-08-29T17:48:01.338Z,28.01
2017-08-29T17:50:27.221Z,27.85
2017-08-29T17:52:53.031Z,28.05
2017-08-29T17:55:18.822Z,28.03
2017-08-29T17:57:44.676Z,27.95
2017-08-29T18:00:10.440Z,27.87
2017-08-29T18:02:36.249Z,27.77
2017-08-29T18:05:02.020Z,27.72
2017-08-29T18:07:27.771Z,27.53
2017-08-29T18:09:53.561Z,27.44
2017-08-29T18:12:19.419Z,27.29
2017-08-29T18:14:45.212Z,27.12
2017-08-29T18:17:10.967Z,27.04
2017-08-29T18:19:36.819Z,26.81
2017-08-29T18:22:02.580Z,26.76
2017-08-29T18:24:28.361Z,26.49
2017-08-29T18:26:54.151Z,26.50
2017-08-29T18:29:19.910Z,26.57
2017-08-29T18:31:45.695Z,26.62
2017-08-29T18:34:11.500Z,26.50
2017-08-29T18:36:37.302Z,26.58
2017-08-29T18:39:03.182Z,26.57
2017-08-29T18:41:28.948Z,26.50
2017-08-29T18:43:54.748Z,26.41
2017-08-29T18:46:20.563Z,26.28
2017-08-29T18:48:46.372Z,26.04
2017-08-29T18:51:12.167Z,25.97
2017-08-29T18:53:37.976Z,25.84
2017-08-29T18:56:03.803Z,25.85
2017-08-29T18:58:29.673Z,25.93
2017-08-29T19:00:55.439Z,25.91
2017-08-29T19:03:21.263Z,25.85
2017-08-29T19:05:47.011Z,25.75
2017-08-29T19:08:12.775Z,25.79
2017-08-29T19:10:38.580Z,25.62
2017-08-29T19:13:04.462Z,25.56
2017-08-29T19:15:30.279Z,25.03
2017-08-29T19:17:56.072Z,24.98
2017-08-29T19:20:21.882Z,24.87
2017-08-29T19:22:47.685Z,24.59
2017-08-29T19:25:14.264Z,24.32
2017-08-29T19:27:40.018Z,24.29
2017-08-29T19:30:09.548Z,24.35
2017-08-29T19:32:35.355Z,24.30
2017-08-29T19:35:01.124Z,24.29
2017-08-29T19:37:27.049Z,24.06
2017-08-29T19:39:52.832Z,23.91
2017-08-29T19:42:18.604Z,23.94
2017-08-29T19:44:44.424Z,23.87
2017-08-29T19:47:10.185Z,23.83
2017-08-29T19:49:36.085Z,23.81
2017-08-29T19:52:01.906Z,23.56
2017-08-29T19:54:27.715Z,23.56
2017-08-29T19:56:53.475Z,23.44
2017-08-29T19:59:19.223Z,23.30
2017-08-29T20:01:45.016Z,23.37
2017-08-29T20:04:10.855Z,23.35
2017-08-29T20:06:36.609Z,23.29
2017-08-29T20:09:02.415Z,23.24
2017-08-29T20:11:28.297Z,23.22
2017-08-29T20:13:54.137Z,23.24
2017-08-29T20:16:19.891Z,22.92
2017-08-29T20:18:45.731Z,23.04
2017-08-29T20:21:11.509Z,22.86
2017-08-29T20:23:37.337Z,22.66
2017-08-29T20:26:03.271Z,22.69
2017-08-29T20:28:29.103Z,22.44
2017-08-29T20:30:54.914Z,22.62
2017-08-29T20:33:20.702Z,22.52
2017-08-29T20:35:46.469Z,22.36
2017-08-29T20:38:12.275Z,22.49
2017-08-29T20:40:38.115Z,22.37
2017-08-29T20:43:03.859Z,22.19
2017-08-29T20:45:29.655Z,22.22
2017-08-29T20:47:55.412Z,22.20
2017-08-29T20:50:21.303Z,22.08
2017-08-29T20:52:47.067Z,22.13
2017-08-29T20:55:12.847Z,22.31
2017-08-29T20:57:38.675Z,22.20
2017-08-29T21:00:04.504Z,22.08
2017-08-29T21:02:30.260Z,22.15
2017-08-29T21:04:56.060Z,22.02
2017-08-29T21:07:21.807Z,21.98
2017-08-29T21:09:47.555Z,21.90
2017-08-29T21:12:13.356Z,21.98
2017-08-29T21:14:39.102Z,21.96
2017-08-29T21:17:04.921Z,21.78
2017-08-29T21:19:30.665Z,21.76
2017-08-29T21:21:56.444Z,21.83
2017-08-29T21:24:22.280Z,21.61
2017-08-29T21:26:48.025Z,21.80
2017-08-29T21:29:13.827Z,21.77
2017-08-29T21:31:39.572Z,21.72
2017-08-29T21:34:05.330Z,21.45
2017-08-29T21:36:31.121Z,21.50
2017-08-29T21:38:56.881Z,21.39
2017-08-29T21:41:22.669Z,21.37
2017-08-29T21:43:48.439Z,21.31
2017-08-29T21:46:14.217Z,21.38
2017-08-29T21:48:39.983Z,21.29
2017-08-29T21:51:05.753Z,21.21
2017-08-29T21:53:31.503Z,21.03
2017-08-29T21:55:57.279Z,21.16
2017-08-29T21:58:23.045Z,21.28
2017-08-29T22:00:48.809Z,21.16
2017-08-29T22:03:14.651Z,21.13
2017-08-29T22:05:40.408Z,21.15
2017-08-29T22:08:06.207Z,21.17
2017-08-29T22:10:31.958Z,21.01
2017-08-29T22:12:57.719Z,21.16
2017-08-29T22:15:23.505Z,21.12
2017-08-29T22:17:49.288Z,21.11
2017-08-29T22:20:15.056Z,20.98
2017-08-29T22:22:40.835Z,21.18
2017-08-29T22:25:06.651Z,21.20
2017-08-29T22:27:32.399Z,21.34
2017-08-29T22:29:58.203Z,21.11
2017-08-29T22:32:23.992Z,21.35
2017-08-29T22:34:49.755Z,21.44
2017-08-29T22:37:15.535Z,21.20
2017-08-29T22:39:41.323Z,21.16
2017-08-29T22:42:07.091Z,21.08
2017-08-29T22:44:32.872Z,20.91
2017-08-29T22:46:58.658Z,20.95
2017-08-29T22:49:24.445Z,21.11
2017-08-29T22:51:50.200Z,21.10
2017-08-29T22:54:16.004Z,21.04
2017-08-29T22:56:41.774Z,21.10
2017-08-29T22:59:07.538Z,21.12
2017-08-29T23:01:33.343Z,21.37
2017-08-29T23:03:59.103Z,21.53
2017-08-29T23:06:24.899Z,21.35
2017-08-29T23:08:50.687Z,21.35
2017-08-29T23:11:16.435Z,21.07
2017-08-29T23:13:42.195Z,21.21
2017-08-29T23:16:07.944Z,20.98
2017-08-29T23:18:33.735Z,21.06
2017-08-29T23:20:59.531Z,20.95
2017-08-29T23:23:25.279Z,20.91
2017-08-29T23:25:51.080Z,20.96
2017-08-29T23:28:16.851Z,20.98
2017-08-29T23:30:42.608Z,20.71
2017-08-29T23:33:08.448Z,20.69
2017-08-29T23:35:34.192Z,20.72
2017-08-29T23:37:59.963Z,20.73
2017-08-29T23:40:25.831Z,20.67
2017-08-29T23:42:51.605Z,20.85
2017-08-29T23:45:17.483Z,20.74
2017-08-29T23:47:43.248Z,20.74
2017-08-29T23:50:09.095Z,20.68
2017-08-29T23:52:34.875Z,20.59
2017-08-29T23:55:00.776Z,20.69
2017-08-29T23:57:26.523Z,20.65
2017-08-29T23:59:52.300Z,20.57
